sensor_id;sensor_type;location;lat;lon;timestamp;P1;durP1;ratioP1;P2;durP2;ratioP2
35434;SDS011;21556;55.782;37.528;2023-02-28T00:00:33;7.10;;;4.90;;
35434;SDS011;21556;55.782;37.528;2023-02-28T00:02:59;7.20;;;4.63;;
35434;SDS011;21556;55.782;37.528;2023-02-28T00:05:26;8.10;;;4.90;;
35434;SDS011;21556;55.782;37.528;2023-02-28T00:07:53;6.63;;;4.38;;
35434;SDS011;21556;55.782;37.528;2023-02-28T00:10:27;6.43;;;4.10;;
35434;SDS011;21556;55.782;37.528;2023-02-28T00:12:58;7.07;;;4.43;;
35434;SDS011;21556;55.782;37.528;2023-02-28T00:15:26;7.43;;;5.00;;
35434;SDS011;21556;55.782;37.528;2023-02-28T00:17:52;6.00;;;3.53;;
35434;SDS011;21556;55.782;37.528;2023-02-28T00:20:18;6.07;;;4.23;;
35434;SDS011;21556;55.782;37.528;2023-02-28T00:22:45;8.10;;;4.90;;
35434;SDS011;21556;55.782;37.528;2023-02-28T00:25:14;5.17;;;3.27;;
35434;SDS011;21556;55.782;37.528;2023-02-28T00:27:42;5.17;;;3.27;;
35434;SDS011;21556;55.782;37.528;2023-02-28T00:30:10;8.17;;;4.73;;
35434;SDS011;21556;55.782;37.528;2023-02-28T00:32:38;6.70;;;4.30;;
35434;SDS011;21556;55.782;37.528;2023-02-28T00:35:05;7.68;;;4.85;;
35434;SDS011;21556;55.782;37.528;2023-02-28T00:37:33;6.97;;;4.68;;
35434;SDS011;21556;55.782;37.528;2023-02-28T00:39:59;7.40;;;4.47;;
35434;SDS011;21556;55.782;37.528;2023-02-28T00:42:26;8.37;;;4.93;;
35434;SDS011;21556;55.782;37.528;2023-02-28T00:44:52;7.13;;;4.40;;
35434;SDS011;21556;55.782;37.528;2023-02-28T00:47:18;8.53;;;4.50;;
35434;SDS011;21556;55.782;37.528;2023-02-28T00:49:44;6.10;;;4.50;;
35434;SDS011;21556;55.782;37.528;2023-02-28T00:52:10;6.27;;;4.33;;
35434;SDS011;21556;55.782;37.528;2023-02-28T00:54:35;8.30;;;5.10;;
35434;SDS011;21556;55.782;37.528;2023-02-28T00:57:02;7.13;;;4.10;;
35434;SDS011;21556;55.782;37.528;2023-02-28T00:59:31;8.67;;;4.47;;
35434;SDS011;21556;55.782;37.528;2023-02-28T01:01:57;6.60;;;4.63;;
35434;SDS011;21556;55.782;37.528;2023-02-28T01:04:23;8.27;;;4.67;;
35434;SDS011;21556;55.782;37.528;2023-02-28T01:06:49;7.27;;;5.00;;
35434;SDS011;21556;55.782;37.528;2023-02-28T01:09:15;8.40;;;4.03;;
35434;SDS011;21556;55.782;37.528;2023-02-28T01:11:41;7.73;;;4.60;;
35434;SDS011;21556;55.782;37.528;2023-02-28T01:16:39;6.20;;;4.17;;
35434;SDS011;21556;55.782;37.528;2023-02-28T01:19:05;6.80;;;4.30;;
35434;SDS011;21556;55.782;37.528;2023-02-28T01:21:31;7.00;;;4.67;;
35434;SDS011;21556;55.782;37.528;2023-02-28T01:23:57;6.10;;;4.43;;
35434;SDS011;21556;55.782;37.528;2023-02-28T01:26:23;7.57;;;5.10;;
35434;SDS011;21556;55.782;37.528;2023-02-28T01:28:50;6.77;;;4.37;;
35434;SDS011;21556;55.782;37.528;2023-02-28T01:31:17;6.03;;;3.67;;
35434;SDS011;21556;55.782;37.528;2023-02-28T01:33:44;5.23;;;4.17;;
35434;SDS011;21556;55.782;37.528;2023-02-28T01:38:42;6.27;;;4.20;;
35434;SDS011;21556;55.782;37.528;2023-02-28T01:41:09;6.37;;;4.20;;
35434;SDS011;21556;55.782;37.528;2023-02-28T01:43:53;6.30;;;4.83;;
35434;SDS011;21556;55.782;37.528;2023-02-28T01:46:52;6.70;;;4.17;;
35434;SDS011;21556;55.782;37.528;2023-02-28T01:49:17;6.00;;;3.80;;
35434;SDS011;21556;55.782;37.528;2023-02-28T01:51:46;5.30;;;2.90;;
35434;SDS011;21556;55.782;37.528;2023-02-28T01:54:24;6.87;;;4.80;;
35434;SDS011;21556;55.782;37.528;2023-02-28T01:56:55;6.03;;;3.60;;
35434;SDS011;21556;55.782;37.528;2023-02-28T01:59:31;6.53;;;4.20;;
35434;SDS011;21556;55.782;37.528;2023-02-28T02:01:57;5.60;;;3.97;;
35434;SDS011;21556;55.782;37.528;2023-02-28T02:04:23;5.50;;;3.87;;
35434;SDS011;21556;55.782;37.528;2023-02-28T02:06:56;6.60;;;3.70;;
35434;SDS011;21556;55.782;37.528;2023-02-28T02:09:23;4.25;;;3.03;;
35434;SDS011;21556;55.782;37.528;2023-02-28T02:11:51;6.30;;;4.07;;
35434;SDS011;21556;55.782;37.528;2023-02-28T02:16:58;5.37;;;3.50;;
35434;SDS011;21556;55.782;37.528;2023-02-28T02:26:06;7.07;;;4.43;;
35434;SDS011;21556;55.782;37.528;2023-02-28T02:35:43;4.67;;;3.37;;
35434;SDS011;21556;55.782;37.528;2023-02-28T02:40:55;4.23;;;3.00;;
35434;SDS011;21556;55.782;37.528;2023-02-28T02:43:39;6.03;;;3.73;;
35434;SDS011;21556;55.782;37.528;2023-02-28T02:46:16;4.47;;;3.40;;
35434;SDS011;21556;55.782;37.528;2023-02-28T02:51:26;4.20;;;2.90;;
35434;SDS011;21556;55.782;37.528;2023-02-28T02:56:28;4.90;;;3.70;;
35434;SDS011;21556;55.782;37.528;2023-02-28T02:58:59;7.90;;;4.30;;
35434;SDS011;21556;55.782;37.528;2023-02-28T03:01:30;5.27;;;3.33;;
35434;SDS011;21556;55.782;37.528;2023-02-28T03:03:58;5.93;;;4.43;;
35434;SDS011;21556;55.782;37.528;2023-02-28T03:06:27;7.13;;;4.90;;
35434;SDS011;21556;55.782;37.528;2023-02-28T03:08:54;6.93;;;4.23;;
35434;SDS011;21556;55.782;37.528;2023-02-28T03:11:21;6.05;;;3.15;;
35434;SDS011;21556;55.782;37.528;2023-02-28T03:19:53;8.70;;;5.43;;
35434;SDS011;21556;55.782;37.528;2023-02-28T03:25:08;7.13;;;4.68;;
35434;SDS011;21556;55.782;37.528;2023-02-28T03:27:40;6.47;;;4.30;;
35434;SDS011;21556;55.782;37.528;2023-02-28T03:30:15;8.50;;;4.93;;
35434;SDS011;21556;55.782;37.528;2023-02-28T03:32:55;8.20;;;5.63;;
35434;SDS011;21556;55.782;37.528;2023-02-28T03:35:24;7.93;;;5.37;;
35434;SDS011;21556;55.782;37.528;2023-02-28T03:37:58;5.77;;;4.17;;
35434;SDS011;21556;55.782;37.528;2023-02-28T03:40:55;7.13;;;4.67;;
35434;SDS011;21556;55.782;37.528;2023-02-28T03:43:28;6.63;;;4.13;;
35434;SDS011;21556;55.782;37.528;2023-02-28T03:45:59;7.37;;;4.43;;
35434;SDS011;21556;55.782;37.528;2023-02-28T03:48:39;4.97;;;3.57;;
35434;SDS011;21556;55.782;37.528;2023-02-28T03:51:10;7.40;;;4.93;;
35434;SDS011;21556;55.782;37.528;2023-02-28T03:53:44;8.43;;;4.83;;
35434;SDS011;21556;55.782;37.528;2023-02-28T03:56:39;5.80;;;4.23;;
35434;SDS011;21556;55.782;37.528;2023-02-28T03:59:13;7.10;;;4.40;;
35434;SDS011;21556;55.782;37.528;2023-02-28T04:01:45;6.93;;;4.30;;
35434;SDS011;21556;55.782;37.528;2023-02-28T04:04:12;6.17;;;4.13;;
35434;SDS011;21556;55.782;37.528;2023-02-28T04:06:39;7.57;;;3.83;;
35434;SDS011;21556;55.782;37.528;2023-02-28T04:09:08;6.40;;;4.30;;
35434;SDS011;21556;55.782;37.528;2023-02-28T04:11:39;6.50;;;3.90;;
35434;SDS011;21556;55.782;37.528;2023-02-28T04:14:07;5.40;;;2.93;;
35434;SDS011;21556;55.782;37.528;2023-02-28T04:16:35;5.57;;;3.50;;
35434;SDS011;21556;55.782;37.528;2023-02-28T04:19:03;7.80;;;4.27;;
35434;SDS011;21556;55.782;37.528;2023-02-28T04:24:04;7.83;;;2.50;;
35434;SDS011;21556;55.782;37.528;2023-02-28T04:26:31;7.70;;;3.60;;
35434;SDS011;21556;55.782;37.528;2023-02-28T04:28:59;6.25;;;3.65;;
35434;SDS011;21556;55.782;37.528;2023-02-28T04:31:29;5.57;;;3.40;;
35434;SDS011;21556;55.782;37.528;2023-02-28T04:33:55;6.03;;;4.07;;
35434;SDS011;21556;55.782;37.528;2023-02-28T04:36:21;6.33;;;3.60;;
35434;SDS011;21556;55.782;37.528;2023-02-28T04:38:48;4.83;;;2.07;;
35434;SDS011;21556;55.782;37.528;2023-02-28T04:41:17;6.23;;;4.10;;
35434;SDS011;21556;55.782;37.528;2023-02-28T04:43:43;4.87;;;3.17;;
35434;SDS011;21556;55.782;37.528;2023-02-28T04:46:09;5.90;;;3.53;;
35434;SDS011;21556;55.782;37.528;2023-02-28T04:48:36;6.10;;;3.30;;
35434;SDS011;21556;55.782;37.528;2023-02-28T04:51:04;6.40;;;3.40;;
35434;SDS011;21556;55.782;37.528;2023-02-28T04:53:32;2.97;;;2.07;;
35434;SDS011;21556;55.782;37.528;2023-02-28T04:55:58;5.13;;;3.17;;
35434;SDS011;21556;55.782;37.528;2023-02-28T04:58:24;5.87;;;2.63;;
35434;SDS011;21556;55.782;37.528;2023-02-28T05:00:51;5.53;;;3.17;;
35434;SDS011;21556;55.782;37.528;2023-02-28T05:03:24;4.10;;;2.87;;
35434;SDS011;21556;55.782;37.528;2023-02-28T05:05:50;4.20;;;2.73;;
35434;SDS011;21556;55.782;37.528;2023-02-28T05:08:16;6.67;;;3.40;;
35434;SDS011;21556;55.782;37.528;2023-02-28T05:10:42;5.33;;;3.30;;
35434;SDS011;21556;55.782;37.528;2023-02-28T05:13:09;5.93;;;2.67;;
35434;SDS011;21556;55.782;37.528;2023-02-28T05:15:37;4.47;;;3.20;;
35434;SDS011;21556;55.782;37.528;2023-02-28T05:18:03;6.80;;;4.53;;
35434;SDS011;21556;55.782;37.528;2023-02-28T05:20:29;5.53;;;3.07;;
35434;SDS011;21556;55.782;37.528;2023-02-28T05:22:55;3.97;;;2.67;;
35434;SDS011;21556;55.782;37.528;2023-02-28T05:25:23;4.93;;;3.03;;
35434;SDS011;21556;55.782;37.528;2023-02-28T05:27:49;4.33;;;2.90;;
35434;SDS011;21556;55.782;37.528;2023-02-28T05:30:16;2.97;;;1.77;;
35434;SDS011;21556;55.782;37.528;2023-02-28T05:32:43;3.47;;;2.30;;
35434;SDS011;21556;55.782;37.528;2023-02-28T05:35:09;4.03;;;2.67;;
35434;SDS011;21556;55.782;37.528;2023-02-28T05:37:37;4.38;;;2.85;;
35434;SDS011;21556;55.782;37.528;2023-02-28T05:40:04;4.70;;;3.17;;
35434;SDS011;21556;55.782;37.528;2023-02-28T05:42:38;5.10;;;3.03;;
35434;SDS011;21556;55.782;37.528;2023-02-28T05:45:04;7.07;;;3.27;;
35434;SDS011;21556;55.782;37.528;2023-02-28T05:47:32;4.68;;;2.88;;
35434;SDS011;21556;55.782;37.528;2023-02-28T05:49:58;4.03;;;2.70;;
35434;SDS011;21556;55.782;37.528;2023-02-28T05:52:24;4.17;;;2.57;;
35434;SDS011;21556;55.782;37.528;2023-02-28T05:54:49;4.30;;;3.20;;
35434;SDS011;21556;55.782;37.528;2023-02-28T05:58:30;4.87;;;3.37;;
35434;SDS011;21556;55.782;37.528;2023-02-28T06:00:57;3.50;;;2.50;;
35434;SDS011;21556;55.782;37.528;2023-02-28T06:03:43;4.63;;;2.70;;
35434;SDS011;21556;55.782;37.528;2023-02-28T06:06:09;5.17;;;3.23;;
35434;SDS011;21556;55.782;37.528;2023-02-28T06:08:35;3.23;;;2.23;;
35434;SDS011;21556;55.782;37.528;2023-02-28T06:11:04;4.77;;;2.80;;
35434;SDS011;21556;55.782;37.528;2023-02-28T06:13:32;5.43;;;2.97;;
35434;SDS011;21556;55.782;37.528;2023-02-28T06:16:00;3.83;;;2.63;;
35434;SDS011;21556;55.782;37.528;2023-02-28T06:18:28;5.93;;;2.90;;
35434;SDS011;21556;55.782;37.528;2023-02-28T06:20:57;5.67;;;3.03;;
35434;SDS011;21556;55.782;37.528;2023-02-28T06:23:23;3.58;;;2.78;;
35434;SDS011;21556;55.782;37.528;2023-02-28T06:25:49;4.37;;;2.43;;
35434;SDS011;21556;55.782;37.528;2023-02-28T06:28:15;4.20;;;2.80;;
35434;SDS011;21556;55.782;37.528;2023-02-28T06:30:41;2.77;;;2.30;;
35434;SDS011;21556;55.782;37.528;2023-02-28T06:33:07;4.50;;;2.53;;
35434;SDS011;21556;55.782;37.528;2023-02-28T06:35:37;5.37;;;2.60;;
35434;SDS011;21556;55.782;37.528;2023-02-28T06:38:03;4.77;;;2.80;;
35434;SDS011;21556;55.782;37.528;2023-02-28T06:40:29;3.87;;;2.63;;
35434;SDS011;21556;55.782;37.528;2023-02-28T06:42:59;4.43;;;2.40;;
35434;SDS011;21556;55.782;37.528;2023-02-28T06:45:25;5.13;;;2.77;;
35434;SDS011;21556;55.782;37.528;2023-02-28T06:47:51;4.23;;;3.10;;
35434;SDS011;21556;55.782;37.528;2023-02-28T06:50:18;6.40;;;3.17;;
35434;SDS011;21556;55.782;37.528;2023-02-28T06:52:46;2.28;;;1.55;;
35434;SDS011;21556;55.782;37.528;2023-02-28T06:55:13;3.43;;;2.60;;
35434;SDS011;21556;55.782;37.528;2023-02-28T06:58:03;3.93;;;2.27;;
35434;SDS011;21556;55.782;37.528;2023-02-28T07:00:43;3.47;;;2.43;;
35434;SDS011;21556;55.782;37.528;2023-02-28T07:03:10;4.63;;;2.33;;
35434;SDS011;21556;55.782;37.528;2023-02-28T07:05:38;3.33;;;2.60;;
35434;SDS011;21556;55.782;37.528;2023-02-28T07:08:05;5.07;;;2.30;;
35434;SDS011;21556;55.782;37.528;2023-02-28T07:10:31;3.20;;;2.00;;
35434;SDS011;21556;55.782;37.528;2023-02-28T07:12:58;3.33;;;2.37;;
35434;SDS011;21556;55.782;37.528;2023-02-28T07:15:25;4.90;;;2.90;;
35434;SDS011;21556;55.782;37.528;2023-02-28T07:17:51;3.67;;;2.30;;
35434;SDS011;21556;55.782;37.528;2023-02-28T07:20:17;5.50;;;3.27;;
35434;SDS011;21556;55.782;37.528;2023-02-28T07:22:43;4.70;;;2.50;;
35434;SDS011;21556;55.782;37.528;2023-02-28T07:25:08;2.87;;;1.97;;
35434;SDS011;21556;55.782;37.528;2023-02-28T07:27:34;4.37;;;2.83;;
35434;SDS011;21556;55.782;37.528;2023-02-28T07:30:00;3.90;;;2.67;;
35434;SDS011;21556;55.782;37.528;2023-02-28T07:34:55;5.90;;;3.17;;
35434;SDS011;21556;55.782;37.528;2023-02-28T07:37:20;5.83;;;3.00;;
35434;SDS011;21556;55.782;37.528;2023-02-28T07:39:46;4.67;;;3.00;;
35434;SDS011;21556;55.782;37.528;2023-02-28T07:42:12;6.30;;;3.43;;
35434;SDS011;21556;55.782;37.528;2023-02-28T07:44:39;5.40;;;2.60;;
35434;SDS011;21556;55.782;37.528;2023-02-28T07:47:06;5.70;;;2.87;;
35434;SDS011;21556;55.782;37.528;2023-02-28T07:49:34;4.90;;;2.50;;
35434;SDS011;21556;55.782;37.528;2023-02-28T07:52:01;4.97;;;2.95;;
35434;SDS011;21556;55.782;37.528;2023-02-28T07:54:28;3.97;;;2.63;;
35434;SDS011;21556;55.782;37.528;2023-02-28T07:56:54;4.03;;;2.97;;
35434;SDS011;21556;55.782;37.528;2023-02-28T07:59:20;8.53;;;3.10;;
35434;SDS011;21556;55.782;37.528;2023-02-28T08:01:46;5.17;;;3.50;;
35434;SDS011;21556;55.782;37.528;2023-02-28T08:04:14;6.63;;;2.75;;
35434;SDS011;21556;55.782;37.528;2023-02-28T08:06:40;6.33;;;3.47;;
35434;SDS011;21556;55.782;37.528;2023-02-28T08:09:05;5.60;;;2.70;;
35434;SDS011;21556;55.782;37.528;2023-02-28T08:11:31;6.33;;;3.43;;
35434;SDS011;21556;55.782;37.528;2023-02-28T08:13:57;5.10;;;2.50;;
35434;SDS011;21556;55.782;37.528;2023-02-28T08:16:23;4.20;;;2.80;;
35434;SDS011;21556;55.782;37.528;2023-02-28T08:18:52;6.43;;;2.80;;
35434;SDS011;21556;55.782;37.528;2023-02-28T08:21:19;4.20;;;2.30;;
35434;SDS011;21556;55.782;37.528;2023-02-28T08:23:47;5.80;;;3.53;;
35434;SDS011;21556;55.782;37.528;2023-02-28T08:26:14;5.38;;;3.05;;
35434;SDS011;21556;55.782;37.528;2023-02-28T08:28:40;4.63;;;2.57;;
35434;SDS011;21556;55.782;37.528;2023-02-28T08:31:07;3.60;;;2.20;;
35434;SDS011;21556;55.782;37.528;2023-02-28T08:33:37;4.30;;;2.70;;
35434;SDS011;21556;55.782;37.528;2023-02-28T08:36:04;5.87;;;2.90;;
35434;SDS011;21556;55.782;37.528;2023-02-28T08:38:31;3.37;;;2.43;;
35434;SDS011;21556;55.782;37.528;2023-02-28T08:40:58;5.07;;;2.93;;
35434;SDS011;21556;55.782;37.528;2023-02-28T08:43:25;0.82;;;0.75;;
35434;SDS011;21556;55.782;37.528;2023-02-28T08:45:52;3.80;;;2.80;;
35434;SDS011;21556;55.782;37.528;2023-02-28T08:48:18;6.30;;;2.90;;
35434;SDS011;21556;55.782;37.528;2023-02-28T08:50:44;5.87;;;2.97;;
35434;SDS011;21556;55.782;37.528;2023-02-28T08:53:09;4.60;;;2.83;;
35434;SDS011;21556;55.782;37.528;2023-02-28T08:55:35;4.17;;;2.57;;
35434;SDS011;21556;55.782;37.528;2023-02-28T08:58:01;3.97;;;2.60;;
35434;SDS011;21556;55.782;37.528;2023-02-28T09:00:27;5.23;;;2.67;;
35434;SDS011;21556;55.782;37.528;2023-02-28T09:02:54;4.77;;;2.13;;
35434;SDS011;21556;55.782;37.528;2023-02-28T09:05:20;3.53;;;2.20;;
35434;SDS011;21556;55.782;37.528;2023-02-28T09:07:46;5.23;;;2.30;;
35434;SDS011;21556;55.782;37.528;2023-02-28T09:10:11;3.13;;;2.10;;
35434;SDS011;21556;55.782;37.528;2023-02-28T09:12:38;3.53;;;1.87;;
35434;SDS011;21556;55.782;37.528;2023-02-28T09:15:04;3.77;;;2.03;;
35434;SDS011;21556;55.782;37.528;2023-02-28T09:17:30;4.93;;;2.47;;
35434;SDS011;21556;55.782;37.528;2023-02-28T09:19:58;2.70;;;2.17;;
35434;SDS011;21556;55.782;37.528;2023-02-28T09:22:24;5.17;;;3.00;;
35434;SDS011;21556;55.782;37.528;2023-02-28T09:24:50;4.70;;;2.57;;
35434;SDS011;21556;55.782;37.528;2023-02-28T09:27:16;3.73;;;2.40;;
35434;SDS011;21556;55.782;37.528;2023-02-28T09:29:42;12.13;;;3.30;;
35434;SDS011;21556;55.782;37.528;2023-02-28T09:32:08;4.27;;;2.53;;
35434;SDS011;21556;55.782;37.528;2023-02-28T09:34:34;3.87;;;2.53;;
35434;SDS011;21556;55.782;37.528;2023-02-28T09:37:02;6.18;;;3.85;;
35434;SDS011;21556;55.782;37.528;2023-02-28T09:39:27;4.53;;;2.33;;
35434;SDS011;21556;55.782;37.528;2023-02-28T09:41:54;4.77;;;2.80;;
35434;SDS011;21556;55.782;37.528;2023-02-28T09:47:11;5.37;;;2.37;;
35434;SDS011;21556;55.782;37.528;2023-02-28T09:49:44;3.37;;;2.47;;
35434;SDS011;21556;55.782;37.528;2023-02-28T09:52:14;3.97;;;2.23;;
35434;SDS011;21556;55.782;37.528;2023-02-28T09:54:44;3.83;;;2.13;;
35434;SDS011;21556;55.782;37.528;2023-02-28T09:57:19;6.93;;;2.73;;
35434;SDS011;21556;55.782;37.528;2023-02-28T10:00:11;4.63;;;2.77;;
35434;SDS011;21556;55.782;37.528;2023-02-28T10:05:30;3.60;;;2.33;;
35434;SDS011;21556;55.782;37.528;2023-02-28T10:10:51;4.17;;;2.53;;
35434;SDS011;21556;55.782;37.528;2023-02-28T10:13:29;3.83;;;2.53;;
35434;SDS011;21556;55.782;37.528;2023-02-28T10:18:57;4.60;;;3.10;;
35434;SDS011;21556;55.782;37.528;2023-02-28T10:21:37;3.93;;;2.70;;
35434;SDS011;21556;55.782;37.528;2023-02-28T10:26:56;5.70;;;3.00;;
35434;SDS011;21556;55.782;37.528;2023-02-28T10:29:38;4.97;;;2.70;;
35434;SDS011;21556;55.782;37.528;2023-02-28T10:32:08;4.73;;;2.57;;
35434;SDS011;21556;55.782;37.528;2023-02-28T10:34:38;4.60;;;2.07;;
35434;SDS011;21556;55.782;37.528;2023-02-28T10:37:03;4.23;;;2.07;;
35434;SDS011;21556;55.782;37.528;2023-02-28T10:42:28;4.47;;;2.47;;
35434;SDS011;21556;55.782;37.528;2023-02-28T10:45:14;3.37;;;2.40;;
35434;SDS011;21556;55.782;37.528;2023-02-28T10:47:55;4.50;;;2.43;;
35434;SDS011;21556;55.782;37.528;2023-02-28T10:50:55;4.83;;;2.23;;
35434;SDS011;21556;55.782;37.528;2023-02-28T10:56:00;5.05;;;2.05;;
35434;SDS011;21556;55.782;37.528;2023-02-28T11:03:51;4.57;;;2.93;;
35434;SDS011;21556;55.782;37.528;2023-02-28T11:06:21;3.77;;;2.47;;
35434;SDS011;21556;55.782;37.528;2023-02-28T11:09:01;4.63;;;3.07;;
35434;SDS011;21556;55.782;37.528;2023-02-28T11:11:40;4.23;;;2.47;;
35434;SDS011;21556;55.782;37.528;2023-02-28T11:14:17;4.80;;;3.00;;
35434;SDS011;21556;55.782;37.528;2023-02-28T11:16:47;5.10;;;2.50;;
35434;SDS011;21556;55.782;37.528;2023-02-28T11:19:38;2.83;;;1.55;;
35434;SDS011;21556;55.782;37.528;2023-02-28T11:22:09;4.53;;;2.50;;
35434;SDS011;21556;55.782;37.528;2023-02-28T11:24:37;6.73;;;3.23;;
35434;SDS011;21556;55.782;37.528;2023-02-28T11:29:59;4.53;;;3.00;;
35434;SDS011;21556;55.782;37.528;2023-02-28T11:32:26;3.87;;;2.50;;
35434;SDS011;21556;55.782;37.528;2023-02-28T11:37:38;6.50;;;3.33;;
35434;SDS011;21556;55.782;37.528;2023-02-28T11:42:59;5.30;;;2.80;;
35434;SDS011;21556;55.782;37.528;2023-02-28T11:48:22;4.50;;;2.83;;
35434;SDS011;21556;55.782;37.528;2023-02-28T11:54:12;5.97;;;2.87;;
35434;SDS011;21556;55.782;37.528;2023-02-28T11:56:50;5.67;;;3.10;;
35434;SDS011;21556;55.782;37.528;2023-02-28T12:02:46;5.30;;;3.70;;
35434;SDS011;21556;55.782;37.528;2023-02-28T12:05:01;4.97;;;3.30;;
35434;SDS011;21556;55.782;37.528;2023-02-28T12:08:25;8.30;;;3.70;;
35434;SDS011;21556;55.782;37.528;2023-02-28T12:10:57;4.93;;;3.03;;
35434;SDS011;21556;55.782;37.528;2023-02-28T12:13:34;4.47;;;2.63;;
35434;SDS011;21556;55.782;37.528;2023-02-28T12:16:24;4.73;;;3.23;;
35434;SDS011;21556;55.782;37.528;2023-02-28T12:21:48;7.10;;;4.60;;
35434;SDS011;21556;55.782;37.528;2023-02-28T12:27:12;5.23;;;3.80;;
35434;SDS011;21556;55.782;37.528;2023-02-28T12:32:30;5.80;;;3.93;;
35434;SDS011;21556;55.782;37.528;2023-02-28T12:37:54;5.50;;;3.27;;
35434;SDS011;21556;55.782;37.528;2023-02-28T12:43:15;4.75;;;3.22;;
35434;SDS011;21556;55.782;37.528;2023-02-28T12:48:31;5.83;;;3.23;;
35434;SDS011;21556;55.782;37.528;2023-02-28T12:51:04;4.30;;;3.17;;
35434;SDS011;21556;55.782;37.528;2023-02-28T13:01:29;5.60;;;3.40;;
35434;SDS011;21556;55.782;37.528;2023-02-28T13:04:41;6.57;;;3.30;;
35434;SDS011;21556;55.782;37.528;2023-02-28T13:09:51;6.00;;;3.40;;
35434;SDS011;21556;55.782;37.528;2023-02-28T13:12:29;5.73;;;3.80;;
35434;SDS011;21556;55.782;37.528;2023-02-28T13:15:06;4.53;;;3.53;;
35434;SDS011;21556;55.782;37.528;2023-02-28T13:17:40;4.73;;;3.43;;
35434;SDS011;21556;55.782;37.528;2023-02-28T13:20:25;4.87;;;3.27;;
35434;SDS011;21556;55.782;37.528;2023-02-28T13:22:55;6.23;;;3.40;;
35434;SDS011;21556;55.782;37.528;2023-02-28T13:27:49;5.37;;;3.13;;
35434;SDS011;21556;55.782;37.528;2023-02-28T13:33:30;4.70;;;3.40;;
35434;SDS011;21556;55.782;37.528;2023-02-28T13:36:06;7.03;;;3.30;;
35434;SDS011;21556;55.782;37.528;2023-02-28T13:38:38;5.43;;;3.57;;
35434;SDS011;21556;55.782;37.528;2023-02-28T13:46:28;5.50;;;3.37;;
35434;SDS011;21556;55.782;37.528;2023-02-28T13:48:55;5.97;;;3.37;;
35434;SDS011;21556;55.782;37.528;2023-02-28T14:05:40;4.53;;;3.10;;
35434;SDS011;21556;55.782;37.528;2023-02-28T14:08:15;6.93;;;3.57;;
35434;SDS011;21556;55.782;37.528;2023-02-28T14:10:49;4.73;;;2.60;;
35434;SDS011;21556;55.782;37.528;2023-02-28T14:16:13;5.03;;;3.43;;
35434;SDS011;21556;55.782;37.528;2023-02-28T14:18:41;5.77;;;3.33;;
35434;SDS011;21556;55.782;37.528;2023-02-28T14:21:20;6.23;;;3.23;;
35434;SDS011;21556;55.782;37.528;2023-02-28T14:35:02;8.00;;;3.67;;
35434;SDS011;21556;55.782;37.528;2023-02-28T14:37:48;5.30;;;3.47;;
35434;SDS011;21556;55.782;37.528;2023-02-28T14:40:17;6.23;;;3.20;;
35434;SDS011;21556;55.782;37.528;2023-02-28T14:43:04;4.03;;;2.72;;
35434;SDS011;21556;55.782;37.528;2023-02-28T14:45:33;5.18;;;2.75;;
35434;SDS011;21556;55.782;37.528;2023-02-28T14:48:04;4.93;;;3.03;;
35434;SDS011;21556;55.782;37.528;2023-02-28T14:50:35;5.30;;;3.57;;
35434;SDS011;21556;55.782;37.528;2023-02-28T14:53:02;4.88;;;3.63;;
35434;SDS011;21556;55.782;37.528;2023-02-28T14:55:31;4.97;;;3.40;;
35434;SDS011;21556;55.782;37.528;2023-02-28T14:58:04;4.83;;;3.47;;
35434;SDS011;21556;55.782;37.528;2023-02-28T15:00:33;4.60;;;2.87;;
35434;SDS011;21556;55.782;37.528;2023-02-28T15:03:01;4.78;;;3.20;;
35434;SDS011;21556;55.782;37.528;2023-02-28T15:05:51;4.63;;;3.90;;
35434;SDS011;21556;55.782;37.528;2023-02-28T15:08:18;6.43;;;3.90;;
35434;SDS011;21556;55.782;37.528;2023-02-28T15:13:39;4.87;;;3.60;;
35434;SDS011;21556;55.782;37.528;2023-02-28T15:19:07;3.97;;;2.80;;
35434;SDS011;21556;55.782;37.528;2023-02-28T15:21:41;6.33;;;4.10;;
35434;SDS011;21556;55.782;37.528;2023-02-28T15:24:19;5.03;;;2.93;;
35434;SDS011;21556;55.782;37.528;2023-02-28T15:26:57;5.80;;;4.23;;
35434;SDS011;21556;55.782;37.528;2023-02-28T15:29:28;4.03;;;3.33;;
35434;SDS011;21556;55.782;37.528;2023-02-28T15:32:01;4.80;;;3.47;;
35434;SDS011;21556;55.782;37.528;2023-02-28T15:34:39;4.67;;;3.07;;
35434;SDS011;21556;55.782;37.528;2023-02-28T15:40:17;5.47;;;3.60;;
35434;SDS011;21556;55.782;37.528;2023-02-28T15:43:13;6.53;;;3.80;;
35434;SDS011;21556;55.782;37.528;2023-02-28T15:46:14;5.07;;;3.00;;
35434;SDS011;21556;55.782;37.528;2023-02-28T15:51:19;4.07;;;2.90;;
35434;SDS011;21556;55.782;37.528;2023-02-28T15:53:49;5.07;;;3.07;;
35434;SDS011;21556;55.782;37.528;2023-02-28T15:58:59;4.70;;;3.40;;
35434;SDS011;21556;55.782;37.528;2023-02-28T16:02:16;3.97;;;2.42;;
35434;SDS011;21556;55.782;37.528;2023-02-28T16:07:38;5.73;;;3.13;;
35434;SDS011;21556;55.782;37.528;2023-02-28T16:10:14;5.07;;;3.00;;
35434;SDS011;21556;55.782;37.528;2023-02-28T16:12:52;1.87;;;1.23;;
35434;SDS011;21556;55.782;37.528;2023-02-28T16:15:37;3.27;;;2.30;;
35434;SDS011;21556;55.782;37.528;2023-02-28T16:18:08;1.97;;;1.77;;
35434;SDS011;21556;55.782;37.528;2023-02-28T16:20:38;4.63;;;2.50;;
35434;SDS011;21556;55.782;37.528;2023-02-28T16:23:08;3.27;;;2.50;;
35434;SDS011;21556;55.782;37.528;2023-02-28T16:25:43;4.43;;;2.60;;
35434;SDS011;21556;55.782;37.528;2023-02-28T16:28:30;4.27;;;2.77;;
35434;SDS011;21556;55.782;37.528;2023-02-28T16:30:59;4.78;;;2.30;;
35434;SDS011;21556;55.782;37.528;2023-02-28T16:33:28;6.20;;;2.63;;
35434;SDS011;21556;55.782;37.528;2023-02-28T16:35:55;4.07;;;2.80;;
35434;SDS011;21556;55.782;37.528;2023-02-28T16:38:20;3.43;;;2.50;;
35434;SDS011;21556;55.782;37.528;2023-02-28T16:40:50;3.60;;;2.60;;
35434;SDS011;21556;55.782;37.528;2023-02-28T16:45:48;3.00;;;2.10;;
35434;SDS011;21556;55.782;37.528;2023-02-28T16:48:23;4.37;;;2.80;;
35434;SDS011;21556;55.782;37.528;2023-02-28T16:50:50;4.70;;;2.70;;
35434;SDS011;21556;55.782;37.528;2023-02-28T16:53:17;3.40;;;2.53;;
35434;SDS011;21556;55.782;37.528;2023-02-28T16:55:43;3.00;;;2.03;;
35434;SDS011;21556;55.782;37.528;2023-02-28T16:58:12;5.73;;;2.77;;
35434;SDS011;21556;55.782;37.528;2023-02-28T17:00:40;4.40;;;2.70;;
35434;SDS011;21556;55.782;37.528;2023-02-28T17:03:23;7.97;;;3.37;;
35434;SDS011;21556;55.782;37.528;2023-02-28T17:05:57;4.87;;;3.10;;
35434;SDS011;21556;55.782;37.528;2023-02-28T17:08:25;5.43;;;3.30;;
35434;SDS011;21556;55.782;37.528;2023-02-28T17:11:14;4.30;;;3.10;;
35434;SDS011;21556;55.782;37.528;2023-02-28T17:13:44;4.07;;;2.77;;
35434;SDS011;21556;55.782;37.528;2023-02-28T17:16:19;3.83;;;2.90;;
35434;SDS011;21556;55.782;37.528;2023-02-28T17:18:56;4.50;;;3.30;;
35434;SDS011;21556;55.782;37.528;2023-02-28T17:21:36;3.03;;;2.40;;
35434;SDS011;21556;55.782;37.528;2023-02-28T17:24:02;5.73;;;2.87;;
35434;SDS011;21556;55.782;37.528;2023-02-28T17:26:37;7.23;;;2.20;;
35434;SDS011;21556;55.782;37.528;2023-02-28T17:29:05;3.13;;;2.33;;
35434;SDS011;21556;55.782;37.528;2023-02-28T17:31:46;3.37;;;2.10;;
35434;SDS011;21556;55.782;37.528;2023-02-28T17:34:33;4.83;;;2.40;;
35434;SDS011;21556;55.782;37.528;2023-02-28T17:37:17;5.23;;;2.43;;
35434;SDS011;21556;55.782;37.528;2023-02-28T17:39:51;1.87;;;1.67;;
35434;SDS011;21556;55.782;37.528;2023-02-28T17:42:22;1.90;;;1.53;;
35434;SDS011;21556;55.782;37.528;2023-02-28T17:44:52;6.30;;;3.33;;
35434;SDS011;21556;55.782;37.528;2023-02-28T17:47:46;3.47;;;1.77;;